sensor_id;sensor_type;location;lat;lon;timestamp;pressure;altitude;pressure_sealevel;temperature;humidity
52975;BME280;38839;45.186;5.720;2022-10-28T00:01:12;100046.50;;;25.04;47.19
52975;BME280;38839;45.186;5.720;2022-10-28T00:03:42;100044.13;;;24.98;47.48
52975;BME280;38839;45.186;5.720;2022-10-28T00:06:14;100048.47;;;24.04;49.37
52975;BME280;38839;45.186;5.720;2022-10-28T00:08:40;100055.59;;;23.83;49.71
52975;BME280;38839;45.186;5.720;2022-10-28T00:11:11;100049.44;;;24.01;49.59
52975;BME280;38839;45.186;5.720;2022-10-28T00:13:38;100050.75;;;24.72;47.92
52975;BME280;38839;45.186;5.720;2022-10-28T00:16:16;100053.59;;;24.67;48.45
52975;BME280;38839;45.186;5.720;2022-10-28T00:18:43;100044.34;;;24.36;48.47
52975;BME280;38839;45.186;5.720;2022-10-28T00:21:12;100042.06;;;24.85;47.63
52975;BME280;38839;45.186;5.720;2022-10-28T00:23:38;100044.22;;;24.39;48.63
52975;BME280;38839;45.186;5.720;2022-10-28T00:26:06;100049.09;;;24.48;48.89
52975;BME280;38839;45.186;5.720;2022-10-28T00:28:31;100054.63;;;24.83;47.49
52975;BME280;38839;45.186;5.720;2022-10-28T00:31:02;100046.19;;;24.93;47.33
52975;BME280;38839;45.186;5.720;2022-10-28T00:33:28;100048.56;;;24.99;47.31
52975;BME280;38839;45.186;5.720;2022-10-28T00:35:54;100055.28;;;24.88;47.26
52975;BME280;38839;45.186;5.720;2022-10-28T00:38:19;100056.31;;;24.46;47.70
52975;BME280;38839;45.186;5.720;2022-10-28T00:40:45;100061.63;;;24.46;48.08
52975;BME280;38839;45.186;5.720;2022-10-28T00:43:11;100047.25;;;24.50;47.84
52975;BME280;38839;45.186;5.720;2022-10-28T00:45:37;100044.81;;;24.84;47.33
52975;BME280;38839;45.186;5.720;2022-10-28T00:48:03;100044.69;;;24.68;47.73
52975;BME280;38839;45.186;5.720;2022-10-28T00:53:24;100054.91;;;24.96;47.27
52975;BME280;38839;45.186;5.720;2022-10-28T00:55:51;100043.94;;;25.02;46.65
52975;BME280;38839;45.186;5.720;2022-10-28T00:58:20;100042.63;;;25.11;46.50
52975;BME280;38839;45.186;5.720;2022-10-28T01:00:47;100058.31;;;24.62;47.87
52975;BME280;38839;45.186;5.720;2022-10-28T01:03:12;100055.22;;;24.90;47.12
52975;BME280;38839;45.186;5.720;2022-10-28T01:05:41;100055.09;;;25.10;46.93
52975;BME280;38839;45.186;5.720;2022-10-28T01:08:07;100059.25;;;25.16;46.57
52975;BME280;38839;45.186;5.720;2022-10-28T01:10:55;100068.63;;;24.88;47.19
52975;BME280;38839;45.186;5.720;2022-10-28T01:13:30;100056.63;;;24.97;46.71
52975;BME280;38839;45.186;5.720;2022-10-28T01:30:19;100056.22;;;24.49;47.60
52975;BME280;38839;45.186;5.720;2022-10-28T01:33:24;100063.19;;;24.13;48.78
52975;BME280;38839;45.186;5.720;2022-10-28T01:35:58;100061.31;;;24.15;48.92
52975;BME280;38839;45.186;5.720;2022-10-28T01:38:37;100064.63;;;24.20;48.49
52975;BME280;38839;45.186;5.720;2022-10-28T01:41:10;100057.66;;;24.57;47.88
52975;BME280;38839;45.186;5.720;2022-10-28T01:44:01;100057.47;;;24.41;48.22
52975;BME280;38839;45.186;5.720;2022-10-28T01:46:39;100067.59;;;23.93;49.27
52975;BME280;38839;45.186;5.720;2022-10-28T01:49:30;100055.19;;;24.71;47.64
52975;BME280;38839;45.186;5.720;2022-10-28T01:52:02;100053.41;;;24.32;48.20
52975;BME280;38839;45.186;5.720;2022-10-28T01:54:31;100056.38;;;23.85;49.24
52975;BME280;38839;45.186;5.720;2022-10-28T01:57:02;100057.25;;;23.65;49.90
52975;BME280;38839;45.186;5.720;2022-10-28T01:59:30;100055.56;;;23.62;50.22
52975;BME280;38839;45.186;5.720;2022-10-28T02:01:57;100055.75;;;23.80;49.82
52975;BME280;38839;45.186;5.720;2022-10-28T02:04:23;100054.91;;;23.57;50.66
52975;BME280;38839;45.186;5.720;2022-10-28T02:06:58;100059.44;;;23.76;50.67
52975;BME280;38839;45.186;5.720;2022-10-28T02:09:50;100049.44;;;24.01;50.11
52975;BME280;38839;45.186;5.720;2022-10-28T02:18:01;100031.31;;;23.48;51.28
52975;BME280;38839;45.186;5.720;2022-10-28T02:21:03;100044.13;;;23.81;50.18
52975;BME280;38839;45.186;5.720;2022-10-28T02:23:54;100046.69;;;23.84;49.54
52975;BME280;38839;45.186;5.720;2022-10-28T02:26:33;100039.25;;;24.11;49.22
52975;BME280;38839;45.186;5.720;2022-10-28T02:29:16;100038.09;;;23.98;49.88
52975;BME280;38839;45.186;5.720;2022-10-28T02:31:55;100035.06;;;24.05;49.56
52975;BME280;38839;45.186;5.720;2022-10-28T02:34:29;100031.56;;;23.62;50.48
52975;BME280;38839;45.186;5.720;2022-10-28T02:36:56;100028.38;;;23.75;50.18
52975;BME280;38839;45.186;5.720;2022-10-28T02:39:31;100032.69;;;23.79;50.25
52975;BME280;38839;45.186;5.720;2022-10-28T02:42:13;100025.41;;;23.82;50.24
52975;BME280;38839;45.186;5.720;2022-10-28T02:44:47;100025.09;;;23.90;49.77
52975;BME280;38839;45.186;5.720;2022-10-28T02:47:17;100019.34;;;23.79;50.48
52975;BME280;38839;45.186;5.720;2022-10-28T02:49:48;100029.91;;;23.82;50.20
52975;BME280;38839;45.186;5.720;2022-10-28T02:52:17;100029.28;;;23.96;49.99
52975;BME280;38839;45.186;5.720;2022-10-28T02:54:56;100022.63;;;23.85;49.83
52975;BME280;38839;45.186;5.720;2022-10-28T02:57:25;100020.13;;;23.60;50.94
52975;BME280;38839;45.186;5.720;2022-10-28T02:59:57;100020.34;;;23.76;50.30
52975;BME280;38839;45.186;5.720;2022-10-28T03:02:23;100024.38;;;23.64;50.33
52975;BME280;38839;45.186;5.720;2022-10-28T03:04:49;100026.06;;;23.67;50.31
52975;BME280;38839;45.186;5.720;2022-10-28T03:07:15;100027.78;;;23.47;50.80
52975;BME280;38839;45.186;5.720;2022-10-28T03:09:40;100026.19;;;23.43;51.07
52975;BME280;38839;45.186;5.720;2022-10-28T03:12:06;100021.53;;;23.48;50.86
52975;BME280;38839;45.186;5.720;2022-10-28T03:14:31;100019.06;;;23.64;50.36
52975;BME280;38839;45.186;5.720;2022-10-28T03:16:57;100024.38;;;23.64;50.83
52975;BME280;38839;45.186;5.720;2022-10-28T03:19:22;100029.84;;;23.61;50.38
52975;BME280;38839;45.186;5.720;2022-10-28T03:21:48;100023.50;;;23.86;49.97
52975;BME280;38839;45.186;5.720;2022-10-28T03:24:14;100021.09;;;24.00;49.38
52975;BME280;38839;45.186;5.720;2022-10-28T03:26:42;100014.72;;;23.84;49.84
52975;BME280;38839;45.186;5.720;2022-10-28T03:29:10;100026.13;;;23.65;50.22
52975;BME280;38839;45.186;5.720;2022-10-28T03:31:37;100019.59;;;23.52;50.55
52975;BME280;38839;45.186;5.720;2022-10-28T03:34:02;100017.88;;;23.72;49.97
52975;BME280;38839;45.186;5.720;2022-10-28T03:36:28;100024.00;;;23.74;49.64
52975;BME280;38839;45.186;5.720;2022-10-28T03:38:53;100026.44;;;23.80;49.34
52975;BME280;38839;45.186;5.720;2022-10-28T03:41:18;100025.97;;;23.68;49.46
52975;BME280;38839;45.186;5.720;2022-10-28T03:43:44;100016.88;;;23.95;48.96
52975;BME280;38839;45.186;5.720;2022-10-28T03:46:09;100017.59;;;23.57;50.07
52975;BME280;38839;45.186;5.720;2022-10-28T03:48:35;100017.16;;;23.25;50.38
52975;BME280;38839;45.186;5.720;2022-10-28T03:51:00;100021.88;;;23.19;50.85
52975;BME280;38839;45.186;5.720;2022-10-28T03:53:26;100012.75;;;23.46;50.14
52975;BME280;38839;45.186;5.720;2022-10-28T03:55:56;100008.38;;;23.23;50.71
52975;BME280;38839;45.186;5.720;2022-10-28T03:58:22;100015.16;;;23.53;49.71
52975;BME280;38839;45.186;5.720;2022-10-28T04:00:49;100012.78;;;23.24;50.22
52975;BME280;38839;45.186;5.720;2022-10-28T04:03:15;100010.47;;;23.15;50.60
52975;BME280;38839;45.186;5.720;2022-10-28T04:05:42;100017.16;;;22.81;51.24
52975;BME280;38839;45.186;5.720;2022-10-28T04:08:07;100012.56;;;22.63;51.88
52975;BME280;38839;45.186;5.720;2022-10-28T04:10:33;100013.94;;;22.49;52.49
52975;BME280;38839;45.186;5.720;2022-10-28T04:13:00;100009.22;;;22.80;51.57
52975;BME280;38839;45.186;5.720;2022-10-28T04:15:26;100006.78;;;22.52;52.04
52975;BME280;38839;45.186;5.720;2022-10-28T04:17:52;100017.13;;;22.59;51.56
52975;BME280;38839;45.186;5.720;2022-10-28T04:20:18;100023.94;;;22.88;50.93
52975;BME280;38839;45.186;5.720;2022-10-28T04:22:43;100026.03;;;22.80;51.14
52975;BME280;38839;45.186;5.720;2022-10-28T04:25:09;100025.44;;;22.96;50.33
52975;BME280;38839;45.186;5.720;2022-10-28T04:27:35;100031.56;;;23.42;49.38
52975;BME280;38839;45.186;5.720;2022-10-28T04:30:00;100030.75;;;23.40;49.13
52975;BME280;38839;45.186;5.720;2022-10-28T04:32:26;100033.63;;;23.35;49.25
52975;BME280;38839;45.186;5.720;2022-10-28T04:34:52;100028.81;;;23.23;49.45
52975;BME280;38839;45.186;5.720;2022-10-28T04:37:17;100024.97;;;23.30;49.37
52975;BME280;38839;45.186;5.720;2022-10-28T04:39:42;100038.59;;;23.22;49.64
52975;BME280;38839;45.186;5.720;2022-10-28T04:42:08;100025.09;;;22.83;50.73
52975;BME280;38839;45.186;5.720;2022-10-28T04:44:33;100037.34;;;22.63;51.46
52975;BME280;38839;45.186;5.720;2022-10-28T04:47:02;100039.56;;;22.98;50.54
52975;BME280;38839;45.186;5.720;2022-10-28T04:49:27;100048.19;;;23.26;49.80
52975;BME280;38839;45.186;5.720;2022-10-28T04:51:53;100033.91;;;22.83;50.51
52975;BME280;38839;45.186;5.720;2022-10-28T04:54:18;100044.56;;;22.60;51.38
52975;BME280;38839;45.186;5.720;2022-10-28T04:56:44;100035.78;;;22.81;50.66
52975;BME280;38839;45.186;5.720;2022-10-28T04:59:10;100041.19;;;23.24;49.82
52975;BME280;38839;45.186;5.720;2022-10-28T05:01:35;100032.31;;;22.79;50.78
52975;BME280;38839;45.186;5.720;2022-10-28T05:04:01;100037.38;;;22.85;50.49
52975;BME280;38839;45.186;5.720;2022-10-28T05:06:26;100033.06;;;22.83;50.81
52975;BME280;38839;45.186;5.720;2022-10-28T05:08:52;100033.28;;;22.99;50.43
52975;BME280;38839;45.186;5.720;2022-10-28T05:11:17;100040.97;;;23.08;50.13
52975;BME280;38839;45.186;5.720;2022-10-28T05:13:43;100038.94;;;22.91;50.56
52975;BME280;38839;45.186;5.720;2022-10-28T05:16:08;100037.88;;;22.73;50.76
52975;BME280;38839;45.186;5.720;2022-10-28T05:18:34;100037.97;;;22.70;51.08
52975;BME280;38839;45.186;5.720;2022-10-28T05:20:59;100046.97;;;22.89;50.64
52975;BME280;38839;45.186;5.720;2022-10-28T05:23:25;100043.47;;;22.65;50.89
52975;BME280;38839;45.186;5.720;2022-10-28T05:25:50;100039.50;;;22.30;51.75
52975;BME280;38839;45.186;5.720;2022-10-28T05:28:17;100029.91;;;22.26;52.25
52975;BME280;38839;45.186;5.720;2022-10-28T05:30:43;100037.81;;;22.02;52.52
52975;BME280;38839;45.186;5.720;2022-10-28T05:33:09;100034.50;;;22.46;51.33
52975;BME280;38839;45.186;5.720;2022-10-28T05:35:35;100036.44;;;22.86;50.40
52975;BME280;38839;45.186;5.720;2022-10-28T05:38:01;100033.34;;;22.75;50.81
52975;BME280;38839;45.186;5.720;2022-10-28T05:40:27;100040.94;;;23.30;49.35
52975;BME280;38839;45.186;5.720;2022-10-28T05:42:53;100040.81;;;23.11;49.47
52975;BME280;38839;45.186;5.720;2022-10-28T05:45:18;100037.63;;;22.56;50.93
52975;BME280;38839;45.186;5.720;2022-10-28T05:47:45;100037.63;;;22.56;51.14
52975;BME280;38839;45.186;5.720;2022-10-28T05:50:12;100037.25;;;22.43;51.46
52975;BME280;38839;45.186;5.720;2022-10-28T05:52:38;100039.75;;;22.22;51.98
52975;BME280;38839;45.186;5.720;2022-10-28T05:55:04;100041.88;;;22.61;51.01
52975;BME280;38839;45.186;5.720;2022-10-28T05:57:32;100041.75;;;22.86;50.33
52975;BME280;38839;45.186;5.720;2022-10-28T05:59:58;100039.41;;;23.01;49.73
52975;BME280;38839;45.186;5.720;2022-10-28T06:02:23;100044.00;;;22.75;50.48
52975;BME280;38839;45.186;5.720;2022-10-28T06:04:49;100040.16;;;22.60;51.10
52975;BME280;38839;45.186;5.720;2022-10-28T06:07:14;100038.25;;;22.40;51.47
52975;BME280;38839;45.186;5.720;2022-10-28T06:09:39;100037.47;;;22.37;51.54
52975;BME280;38839;45.186;5.720;2022-10-28T06:12:06;100034.25;;;22.28;51.70
52975;BME280;38839;45.186;5.720;2022-10-28T06:14:32;100030.13;;;22.43;51.31
52975;BME280;38839;45.186;5.720;2022-10-28T06:16:58;100033.63;;;22.91;50.10
52975;BME280;38839;45.186;5.720;2022-10-28T06:19:24;100050.81;;;22.35;51.56
52975;BME280;38839;45.186;5.720;2022-10-28T06:21:49;100051.06;;;22.29;51.90
52975;BME280;38839;45.186;5.720;2022-10-28T06:24:14;100041.69;;;22.66;50.83
52975;BME280;38839;45.186;5.720;2022-10-28T06:26:40;100038.19;;;22.87;50.20
52975;BME280;38839;45.186;5.720;2022-10-28T06:29:05;100038.31;;;22.62;50.90
52975;BME280;38839;45.186;5.720;2022-10-28T06:31:31;100028.28;;;22.69;50.76
52975;BME280;38839;45.186;5.720;2022-10-28T06:33:57;100038.44;;;22.81;50.44
52975;BME280;38839;45.186;5.720;2022-10-28T06:36:23;100035.63;;;23.08;49.90
52975;BME280;38839;45.186;5.720;2022-10-28T06:38:51;100033.88;;;23.07;49.66
52975;BME280;38839;45.186;5.720;2022-10-28T06:41:17;100040.25;;;23.03;49.87
52975;BME280;38839;45.186;5.720;2022-10-28T06:43:42;100043.03;;;23.00;50.09
52975;BME280;38839;45.186;5.720;2022-10-28T06:46:07;100047.88;;;23.12;49.87
52975;BME280;38839;45.186;5.720;2022-10-28T06:48:33;100050.41;;;23.37;49.28
52975;BME280;38839;45.186;5.720;2022-10-28T06:50:59;100046.44;;;23.25;49.63
52975;BME280;38839;45.186;5.720;2022-10-28T06:53:24;100053.81;;;23.41;48.80
52975;BME280;38839;45.186;5.720;2022-10-28T06:55:54;100055.53;;;23.42;48.88
52975;BME280;38839;45.186;5.720;2022-10-28T06:58:19;100058.75;;;23.70;48.03
52975;BME280;38839;45.186;5.720;2022-10-28T07:00:45;100066.88;;;23.67;48.27
52975;BME280;38839;45.186;5.720;2022-10-28T07:03:11;100076.16;;;23.59;48.17
52975;BME280;38839;45.186;5.720;2022-10-28T07:05:36;100075.38;;;23.35;48.77
52975;BME280;38839;45.186;5.720;2022-10-28T07:08:02;100073.41;;;23.60;48.28
52975;BME280;38839;45.186;5.720;2022-10-28T07:10:27;100074.16;;;23.42;48.48
52975;BME280;38839;45.186;5.720;2022-10-28T07:12:53;100076.13;;;22.93;49.79
52975;BME280;38839;45.186;5.720;2022-10-28T07:15:18;100085.50;;;23.25;49.10
52975;BME280;38839;45.186;5.720;2022-10-28T07:17:44;100088.22;;;23.23;48.97
52975;BME280;38839;45.186;5.720;2022-10-28T07:20:10;100085.59;;;23.00;49.44
52975;BME280;38839;45.186;5.720;2022-10-28T07:22:37;100089.97;;;23.24;48.72
52975;BME280;38839;45.186;5.720;2022-10-28T07:25:03;100096.03;;;23.50;48.28
52975;BME280;38839;45.186;5.720;2022-10-28T07:27:28;100102.59;;;23.63;48.21
52975;BME280;38839;45.186;5.720;2022-10-28T07:29:54;100102.91;;;23.56;48.04
52975;BME280;38839;45.186;5.720;2022-10-28T07:32:19;100103.50;;;23.62;47.91
52975;BME280;38839;45.186;5.720;2022-10-28T07:34:44;100102.91;;;23.78;47.49
52975;BME280;38839;45.186;5.720;2022-10-28T07:37:10;100106.06;;;23.65;47.83
52975;BME280;38839;45.186;5.720;2022-10-28T07:39:36;100099.66;;;23.69;47.89
52975;BME280;38839;45.186;5.720;2022-10-28T07:42:02;100103.34;;;23.67;47.76
52975;BME280;38839;45.186;5.720;2022-10-28T07:44:28;100110.69;;;23.60;48.08
52975;BME280;38839;45.186;5.720;2022-10-28T07:46:53;100112.13;;;23.47;48.47
52975;BME280;38839;45.186;5.720;2022-10-28T07:49:18;100114.59;;;23.74;48.06
52975;BME280;38839;45.186;5.720;2022-10-28T07:51:44;100107.22;;;23.80;47.58
52975;BME280;38839;45.186;5.720;2022-10-28T07:54:10;100117.69;;;23.85;47.63
52975;BME280;38839;45.186;5.720;2022-10-28T07:56:35;100116.72;;;23.87;47.47
52975;BME280;38839;45.186;5.720;2022-10-28T07:59:01;100117.41;;;23.26;48.72
52975;BME280;38839;45.186;5.720;2022-10-28T08:01:26;100118.28;;;23.27;48.43
52975;BME280;38839;45.186;5.720;2022-10-28T08:03:52;100123.97;;;22.94;49.39
52975;BME280;38839;45.186;5.720;2022-10-28T08:06:19;100126.88;;;23.12;49.08
52975;BME280;38839;45.186;5.720;2022-10-28T08:08:46;100130.34;;;23.36;48.45
52975;BME280;38839;45.186;5.720;2022-10-28T08:11:18;100125.75;;;23.83;47.41
52975;BME280;38839;45.186;5.720;2022-10-28T08:13:44;100122.47;;;23.77;47.67
52975;BME280;38839;45.186;5.720;2022-10-28T08:16:10;100123.09;;;24.04;46.86
52975;BME280;38839;45.186;5.720;2022-10-28T08:18:36;100127.28;;;24.30;46.51
52975;BME280;38839;45.186;5.720;2022-10-28T08:21:03;100120.41;;;24.65;45.82
52975;BME280;38839;45.186;5.720;2022-10-28T08:23:29;100123.94;;;24.66;45.73
52975;BME280;38839;45.186;5.720;2022-10-28T08:25:55;100123.41;;;24.58;45.98
52975;BME280;38839;45.186;5.720;2022-10-28T08:28:21;100122.41;;;24.79;45.80
52975;BME280;38839;45.186;5.720;2022-10-28T08:30:46;100126.44;;;24.69;46.09
52975;BME280;38839;45.186;5.720;2022-10-28T08:33:13;100122.56;;;24.95;45.44
52975;BME280;38839;45.186;5.720;2022-10-28T08:35:39;100120.97;;;25.10;45.26
52975;BME280;38839;45.186;5.720;2022-10-28T08:38:04;100117.53;;;25.27;44.53
52975;BME280;38839;45.186;5.720;2022-10-28T08:43:47;100128.19;;;25.46;44.07
52975;BME280;38839;45.186;5.720;2022-10-28T08:46:00;100131.94;;;24.45;45.85
52975;BME280;38839;45.186;5.720;2022-10-28T08:48:30;100126.44;;;24.69;46.01
52975;BME280;38839;45.186;5.720;2022-10-28T08:51:19;100113.72;;;25.50;44.78
52975;BME280;38839;45.186;5.720;2022-10-28T08:53:53;100124.41;;;26.55;42.44
52975;BME280;38839;45.186;5.720;2022-10-28T08:56:39;100122.16;;;26.80;41.30
52975;BME280;38839;45.186;5.720;2022-10-28T08:59:26;100126.66;;;26.96;41.05
52975;BME280;38839;45.186;5.720;2022-10-28T09:02:44;100117.25;;;27.20;40.99
52975;BME280;38839;45.186;5.720;2022-10-28T09:04:50;100117.38;;;27.35;40.64
52975;BME280;38839;45.186;5.720;2022-10-28T09:07:20;100118.75;;;27.88;39.87
52975;BME280;38839;45.186;5.720;2022-10-28T09:09:47;100116.16;;;28.31;39.06
52975;BME280;38839;45.186;5.720;2022-10-28T09:15:25;100106.88;;;26.82;39.94
52975;BME280;38839;45.186;5.720;2022-10-28T09:23:12;100103.38;;;27.76;38.37
52975;BME280;38839;45.186;5.720;2022-10-28T09:31:31;100100.09;;;28.60;37.80
52975;BME280;38839;45.186;5.720;2022-10-28T09:36:41;100103.81;;;28.43;37.82
52975;BME280;38839;45.186;5.720;2022-10-28T09:39:18;100099.81;;;28.05;37.89
52975;BME280;38839;45.186;5.720;2022-10-28T09:41:46;100100.06;;;28.45;38.08
52975;BME280;38839;45.186;5.720;2022-10-28T09:44:35;100108.94;;;28.17;37.42
52975;BME280;38839;45.186;5.720;2022-10-28T09:47:14;100100.47;;;28.68;36.94
52975;BME280;38839;45.186;5.720;2022-10-28T09:49:40;100110.78;;;28.88;36.96
52975;BME280;38839;45.186;5.720;2022-10-28T09:54:35;100107.31;;;29.01;36.42
52975;BME280;38839;45.186;5.720;2022-10-28T09:57:02;100098.00;;;29.21;35.82
52975;BME280;38839;45.186;5.720;2022-10-28T09:59:28;100104.84;;;28.69;36.61
52975;BME280;38839;45.186;5.720;2022-10-28T10:01:54;100106.28;;;28.89;36.71
52975;BME280;38839;45.186;5.720;2022-10-28T10:04:22;100105.31;;;29.04;36.25
52975;BME280;38839;45.186;5.720;2022-10-28T10:06:59;100102.00;;;29.28;35.89
52975;BME280;38839;45.186;5.720;2022-10-28T10:09:29;100093.78;;;29.17;36.48
52975;BME280;38839;45.186;5.720;2022-10-28T10:11:59;100096.38;;;28.89;36.94
52975;BME280;38839;45.186;5.720;2022-10-28T10:14:48;100097.00;;;28.66;37.36
52975;BME280;38839;45.186;5.720;2022-10-28T10:17:20;100097.53;;;28.42;37.17
52975;BME280;38839;45.186;5.720;2022-10-28T10:20:06;100103.50;;;28.47;37.76
52975;BME280;38839;45.186;5.720;2022-10-28T10:22:41;100104.63;;;28.15;38.04
52975;BME280;38839;45.186;5.720;2022-10-28T10:30:35;100089.94;;;27.92;38.94
52975;BME280;38839;45.186;5.720;2022-10-28T10:33:02;100080.28;;;28.32;38.59
52975;BME280;38839;45.186;5.720;2022-10-28T10:35:33;100077.34;;;28.37;38.50
52975;BME280;38839;45.186;5.720;2022-10-28T10:38:01;100085.78;;;28.88;37.57
52975;BME280;38839;45.186;5.720;2022-10-28T10:40:30;100083.94;;;28.88;37.54
52975;BME280;38839;45.186;5.720;2022-10-28T10:43:33;100074.41;;;29.39;36.47
52975;BME280;38839;45.186;5.720;2022-10-28T10:46:04;100071.41;;;29.71;36.06
52975;BME280;38839;45.186;5.720;2022-10-28T10:48:33;100074.44;;;29.79;35.48
52975;BME280;38839;45.186;5.720;2022-10-28T10:51:23;100069.25;;;29.76;35.44
52975;BME280;38839;45.186;5.720;2022-10-28T10:53:52;100063.34;;;29.83;35.61
52975;BME280;38839;45.186;5.720;2022-10-28T10:56:28;100058.97;;;30.08;35.18
52975;BME280;38839;45.186;5.720;2022-10-28T10:58:59;100056.38;;;30.06;34.70
52975;BME280;38839;45.186;5.720;2022-10-28T11:01:32;100047.66;;;30.41;34.66
52975;BME280;38839;45.186;5.720;2022-10-28T11:04:00;100041.31;;;29.91;35.06
52975;BME280;38839;45.186;5.720;2022-10-28T11:06:30;100044.00;;;30.17;34.80
52975;BME280;38839;45.186;5.720;2022-10-28T11:08:58;100045.19;;;30.25;34.74
52975;BME280;38839;45.186;5.720;2022-10-28T11:11:39;100041.19;;;30.57;33.90
52975;BME280;38839;45.186;5.720;2022-10-28T11:16:31;100027.09;;;29.89;34.49
52975;BME280;38839;45.186;5.720;2022-10-28T11:18:56;100014.41;;;29.91;35.01
52975;BME280;38839;45.186;5.720;2022-10-28T11:24:29;100017.63;;;30.09;34.91
52975;BME280;38839;45.186;5.720;2022-10-28T11:27:26;100015.81;;;29.97;34.83
52975;BME280;38839;45.186;5.720;2022-10-28T11:29:53;100010.97;;;29.09;35.96
52975;BME280;38839;45.186;5.720;2022-10-28T11:32:45;99997.28;;;29.26;35.00
52975;BME280;38839;45.186;5.720;2022-10-28T11:43:35;99974.09;;;28.57;36.13
52975;BME280;38839;45.186;5.720;2022-10-28T11:51:45;99961.91;;;28.93;34.83
52975;BME280;38839;45.186;5.720;2022-10-28T11:57:00;99959.38;;;29.31;34.16
52975;BME280;38839;45.186;5.720;2022-10-28T11:59:39;99956.09;;;29.79;33.32
52975;BME280;38839;45.186;5.720;2022-10-28T12:05:08;99955.19;;;30.17;31.99
52975;BME280;38839;45.186;5.720;2022-10-28T12:16:16;99929.75;;;30.95;31.53
52975;BME280;38839;45.186;5.720;2022-10-28T12:18:51;99930.22;;;30.88;31.61
52975;BME280;38839;45.186;5.720;2022-10-28T12:21:36;99917.81;;;30.86;31.45
52975;BME280;38839;45.186;5.720;2022-10-28T12:24:08;99927.16;;;30.69;32.10
52975;BME280;38839;45.186;5.720;2022-10-28T12:26:55;99920.50;;;30.62;32.33
52975;BME280;38839;45.186;5.720;2022-10-28T12:29:29;99920.66;;;30.47;33.10
52975;BME280;38839;45.186;5.720;2022-10-28T12:32:07;99910.94;;;30.58;33.14
52975;BME280;38839;45.186;5.720;2022-10-28T12:34:38;99908.78;;;30.63;33.17
52975;BME280;38839;45.186;5.720;2022-10-28T12:37:17;99903.16;;;30.42;33.35
52975;BME280;38839;45.186;5.720;2022-10-28T12:42:44;99901.19;;;30.07;33.74
52975;BME280;38839;45.186;5.720;2022-10-28T12:45:14;99912.19;;;29.91;33.74
52975;BME280;38839;45.186;5.720;2022-10-28T12:47:43;99901.59;;;30.14;33.77
52975;BME280;38839;45.186;5.720;2022-10-28T12:50:37;99905.66;;;30.32;33.51
52975;BME280;38839;45.186;5.720;2022-10-28T12:58:03;99899.09;;;30.11;34.34
52975;BME280;38839;45.186;5.720;2022-10-28T13:00:51;99897.94;;;30.02;34.84
52975;BME280;38839;45.186;5.720;2022-10-28T13:03:18;99893.22;;;30.05;34.84
52975;BME280;38839;45.186;5.720;2022-10-28T13:05:52;99888.13;;;30.14;35.41
52975;BME280;38839;45.186;5.720;2022-10-28T13:27:46;99882.41;;;30.31;36.96
52975;BME280;38839;45.186;5.720;2022-10-28T13:30:16;99882.69;;;30.63;36.70
52975;BME280;38839;45.186;5.720;2022-10-28T13:32:43;99877.16;;;30.30;37.27
52975;BME280;38839;45.186;5.720;2022-10-28T13:35:23;99879.53;;;30.45;37.65
52975;BME280;38839;45.186;5.720;2022-10-28T13:37:51;99879.63;;;30.20;37.99
52975;BME280;38839;45.186;5.720;2022-10-28T13:42:57;99877.28;;;30.15;38.69
52975;BME280;38839;45.186;5.720;2022-10-28T13:45:46;99872.63;;;30.30;38.42
52975;BME280;38839;45.186;5.720;2022-10-28T13:59:23;99866.38;;;30.30;38.76
52975;BME280;38839;45.186;5.720;2022-10-28T14:05:00;99867.38;;;30.64;38.04
52975;BME280;38839;45.186;5.720;2022-10-28T14:07:31;99858.91;;;30.33;38.79
52975;BME280;38839;45.186;5.720;2022-10-28T14:10:14;99870.66;;;30.32;39.27
52975;BME280;38839;45.186;5.720;2022-10-28T14:12:45;99865.22;;;30.45;38.44
52975;BME280;38839;45.186;5.720;2022-10-28T14:15:28;99868.09;;;30.55;38.39
52975;BME280;38839;45.186;5.720;2022-10-28T14:18:40;99868.38;;;30.63;38.34
52975;BME280;38839;45.186;5.720;2022-10-28T14:39:50;99858.81;;;30.59;39.02
52975;BME280;38839;45.186;5.720;2022-10-28T14:45:16;99863.09;;;30.61;38.76
52975;BME280;38839;45.186;5.720;2022-10-28T14:48:11;99856.69;;;30.51;39.25
52975;BME280;38839;45.186;5.720;2022-10-28T14:50:42;99863.09;;;30.61;38.88
52975;BME280;38839;45.186;5.720;2022-10-28T14:53:29;99866.25;;;30.55;38.95
52975;BME280;38839;45.186;5.720;2022-10-28T14:55:59;99862.72;;;30.55;39.00
52975;BME280;38839;45.186;5.720;2022-10-28T14:58:29;99863.91;;;30.51;39.04
52975;BME280;38839;45.186;5.720;2022-10-28T15:03:37;99868.94;;;30.55;38.91
52975;BME280;38839;45.186;5.720;2022-10-28T15:06:36;99859.56;;;30.61;38.86
52975;BME280;38839;45.186;5.720;2022-10-28T15:09:26;99866.19;;;30.68;38.95
52975;BME280;38839;45.186;5.720;2022-10-28T15:11:57;99866.88;;;30.59;39.13
52975;BME280;38839;45.186;5.720;2022-10-28T15:16:50;99865.97;;;30.47;38.59
52975;BME280;38839;45.186;5.720;2022-10-28T15:19:19;99859.19;;;30.41;38.91
52975;BME280;38839;45.186;5.720;2022-10-28T15:22:28;99871.84;;;30.28;39.20
52975;BME280;38839;45.186;5.720;2022-10-28T15:25:24;99864.28;;;30.33;39.57
52975;BME280;38839;45.186;5.720;2022-10-28T15:27:50;99861.84;;;30.30;39.71
52975;BME280;38839;45.186;5.720;2022-10-28T15:30:21;99867.41;;;30.40;39.03
52975;BME280;38839;45.186;5.720;2022-10-28T15:32:49;99860.41;;;30.37;39.17
52975;BME280;38839;45.186;5.720;2022-10-28T15:37:53;99866.66;;;30.25;39.05
52975;BME280;38839;45.186;5.720;2022-10-28T15:40:37;99862.63;;;30.19;39.43
52975;BME280;38839;45.186;5.720;2022-10-28T15:43:03;99859.78;;;30.21;39.76
52975;BME280;38839;45.186;5.720;2022-10-28T15:45:34;99857.53;;;30.15;39.92
52975;BME280;38839;45.186;5.720;2022-10-28T15:48:01;99855.56;;;30.05;39.81